createdAt,value
2022-11-19T00:02:44.796Z,96117.91
2022-11-19T00:08:05.572Z,96114.03
2022-11-19T00:13:26.180Z,96125.00
2022-11-19T00:18:47.051Z,96131.75
2022-11-19T00:24:08.491Z,96130.09
2022-11-19T00:29:29.250Z,96125.56
2022-11-19T00:34:49.971Z,96111.06
2022-11-19T00:40:12.352Z,96115.59
2022-11-19T00:45:32.964Z,96148.34
2022-11-19T00:50:53.832Z,96151.16
2022-11-19T00:56:15.942Z,96151.41
2022-11-19T01:01:36.826Z,96162.41
2022-11-19T01:06:57.403Z,96166.53
2022-11-19T01:12:18.097Z,96169.06
2022-11-19T01:17:38.648Z,96182.19
2022-11-19T01:22:59.499Z,96178.28
2022-11-19T01:28:20.503Z,96168.78
2022-11-19T01:33:41.553Z,96175.72
2022-11-19T01:39:02.263Z,96172.25
2022-11-19T01:44:41.640Z,96190.06
2022-11-19T01:50:02.737Z,96177.00
2022-11-19T01:55:24.276Z,96189.63
2022-11-19T02:00:44.913Z,96206.63
2022-11-19T02:06:06.346Z,96207.56
2022-11-19T02:11:42.047Z,96219.50
2022-11-19T02:17:05.990Z,96229.91
2022-11-19T02:23:02.294Z,96243.44
2022-11-19T02:28:41.310Z,96252.19
2022-11-19T02:34:09.003Z,96251.66
2022-11-19T02:39:36.468Z,96259.75
2022-11-19T02:45:04.942Z,96256.31
2022-11-19T02:50:37.578Z,96244.44
2022-11-19T02:56:13.389Z,96241.84
2022-11-19T03:01:53.803Z,96238.56
2022-11-19T03:07:17.177Z,96238.00
2022-11-19T03:12:56.540Z,96240.09
2022-11-19T03:18:22.468Z,96250.16
2022-11-19T03:23:53.125Z,96246.41
2022-11-19T03:29:14.883Z,96262.63
2022-11-19T03:34:36.469Z,96262.63
2022-11-19T03:39:59.054Z,96272.84
2022-11-19T03:45:22.462Z,96280.09
2022-11-19T03:50:47.754Z,96273.75
2022-11-19T03:56:10.435Z,96292.97
2022-11-19T04:01:33.537Z,96290.63
2022-11-19T04:06:54.231Z,96292.28
2022-11-19T04:12:15.775Z,96298.16
2022-11-19T04:17:36.525Z,96305.28
2022-11-19T04:22:57.326Z,96303.97
2022-11-19T04:28:18.134Z,96298.19
2022-11-19T04:33:38.908Z,96302.53
2022-11-19T04:38:59.679Z,96297.81
2022-11-19T04:44:20.396Z,96308.56
2022-11-19T04:49:41.118Z,96312.38
2022-11-19T04:55:02.082Z,96319.72
2022-11-19T05:00:23.006Z,96323.84
2022-11-19T05:05:43.658Z,96326.81
2022-11-19T05:11:04.287Z,96327.47
2022-11-19T05:16:24.959Z,96333.41
2022-11-19T05:21:45.720Z,96334.75
2022-11-19T05:27:06.509Z,96331.97
2022-11-19T05:32:27.357Z,96331.09
2022-11-19T05:37:48.616Z,96332.69
2022-11-19T05:43:09.123Z,96335.75
2022-11-19T05:48:30.017Z,96348.53
2022-11-19T05:53:50.508Z,96362.91
2022-11-19T05:59:11.105Z,96368.69
2022-11-19T06:04:31.819Z,96368.50
2022-11-19T06:09:52.504Z,96377.22
2022-11-19T06:15:13.586Z,96390.50
2022-11-19T06:20:34.209Z,96389.59
2022-11-19T06:25:55.838Z,96394.94
2022-11-19T06:31:16.831Z,96403.19
2022-11-19T06:36:42.700Z,96413.09
2022-11-19T06:42:23.239Z,96415.25
2022-11-19T06:47:47.231Z,96404.41
2022-11-19T06:53:07.683Z,96408.63
2022-11-19T06:58:28.687Z,96409.84
2022-11-19T07:03:49.117Z,96412.75
2022-11-19T07:09:10.120Z,96425.84
2022-11-19T07:14:30.850Z,96422.97
2022-11-19T07:19:51.746Z,96424.16
2022-11-19T07:25:13.030Z,96418.34
2022-11-19T07:30:33.984Z,96423.28
2022-11-19T07:35:54.652Z,96435.53
2022-11-19T07:41:34.613Z,96425.59
2022-11-19T07:46:55.321Z,96423.31
2022-11-19T07:52:16.327Z,96429.75
2022-11-19T07:57:37.084Z,96422.97
2022-11-19T08:02:57.881Z,96424.31
2022-11-19T08:08:18.491Z,96423.78
2022-11-19T08:13:39.953Z,96422.22
2022-11-19T08:19:10.926Z,96429.38
2022-11-19T08:24:31.607Z,96429.94
2022-11-19T08:29:52.478Z,96432.78
2022-11-19T08:35:12.991Z,96444.28
2022-11-19T08:40:34.027Z,96444.34
2022-11-19T08:45:54.776Z,96448.53
2022-11-19T08:51:16.568Z,96453.78
2022-11-19T08:56:37.394Z,96451.69
2022-11-19T09:01:58.161Z,96455.97
2022-11-19T09:07:19.387Z,96447.00
2022-11-19T09:12:40.117Z,96466.06
2022-11-19T09:18:00.942Z,96481.88
2022-11-19T09:23:22.656Z,96479.00
2022-11-19T09:28:44.086Z,96482.91
2022-11-19T09:34:04.831Z,96484.72
2022-11-19T09:39:25.769Z,96487.72
2022-11-19T09:45:05.314Z,96481.00
2022-11-19T09:50:27.872Z,96492.09
2022-11-19T09:55:49.916Z,96499.94
2022-11-19T10:01:14.645Z,96495.63
2022-11-19T10:06:44.492Z,96501.75
2022-11-19T10:12:12.202Z,96494.72
2022-11-19T10:17:43.035Z,96494.47
2022-11-19T10:23:10.425Z,96499.38
2022-11-19T10:28:35.873Z,96486.94
2022-11-19T10:34:04.880Z,96477.94
2022-11-19T10:39:35.314Z,96450.88
2022-11-19T10:44:58.176Z,96442.72
2022-11-19T10:50:20.020Z,96460.41
2022-11-19T10:55:51.374Z,96455.28
2022-11-19T11:01:21.310Z,96456.94
2022-11-19T11:06:51.687Z,96448.00
2022-11-19T11:12:39.019Z,96464.69
2022-11-19T11:18:04.055Z,96444.66
2022-11-19T11:23:27.275Z,96429.94
2022-11-19T11:28:59.363Z,96437.59
2022-11-19T11:34:26.003Z,96414.88
2022-11-19T11:39:49.693Z,96417.44
2022-11-19T11:45:20.330Z,96414.31
2022-11-19T11:50:44.912Z,96411.09
2022-11-19T11:56:05.720Z,96407.88
2022-11-19T12:01:26.529Z,96393.28
2022-11-19T12:07:02.790Z,96407.38
2022-11-19T12:12:38.936Z,96413.75
2022-11-19T12:18:17.940Z,96408.88
2022-11-19T12:23:38.670Z,96405.09
2022-11-19T12:29:31.923Z,96412.75
2022-11-19T12:34:55.485Z,96411.84
2022-11-19T12:40:16.341Z,96407.13
2022-11-19T12:45:55.810Z,96408.56
2022-11-19T12:51:27.628Z,96405.25
2022-11-19T12:56:51.394Z,96411.34
2022-11-19T13:02:35.416Z,96408.28
2022-11-19T13:08:03.207Z,96418.69
2022-11-19T13:13:27.049Z,96418.78
2022-11-19T13:18:50.420Z,96414.38
2022-11-19T13:24:31.486Z,96414.47
2022-11-19T13:29:59.302Z,96417.03
2022-11-19T13:35:22.605Z,96408.19
2022-11-19T13:40:45.545Z,96402.06
2022-11-19T13:46:15.582Z,96400.31
2022-11-19T13:51:44.712Z,96415.66
2022-11-19T13:57:07.044Z,96417.06
2022-11-19T14:02:46.533Z,96400.97
2022-11-19T14:08:38.416Z,96416.38
2022-11-19T14:14:34.155Z,96417.78
2022-11-19T14:20:14.958Z,96417.16
2022-11-19T14:26:02.501Z,96422.97
2022-11-19T14:31:23.112Z,96416.63
2022-11-19T14:36:46.865Z,96406.13
2022-11-19T14:42:18.082Z,96421.47
2022-11-19T14:47:43.555Z,96429.47
2022-11-19T14:53:04.570Z,96420.88
2022-11-19T14:58:25.266Z,96422.06
2022-11-19T15:03:48.442Z,96418.81
2022-11-19T15:09:10.725Z,96417.16
2022-11-19T15:14:39.696Z,96423.03
2022-11-19T15:20:19.594Z,96431.72
2022-11-19T15:25:59.591Z,96430.66
2022-11-19T15:31:39.014Z,96423.00
2022-11-19T15:37:02.320Z,96423.41
2022-11-19T15:42:32.370Z,96417.78
2022-11-19T15:47:56.251Z,96419.34
2022-11-19T15:53:18.492Z,96417.91
2022-11-19T15:58:43.933Z,96410.13
2022-11-19T16:04:07.672Z,96420.38
2022-11-19T16:09:28.752Z,96424.50
2022-11-19T16:15:09.513Z,96414.66
2022-11-19T16:20:30.248Z,96416.38
2022-11-19T16:25:51.815Z,96420.41
2022-11-19T16:31:13.179Z,96423.63
2022-11-19T16:36:34.025Z,96423.00
2022-11-19T16:42:15.967Z,96420.22
2022-11-19T16:47:38.223Z,96439.56
2022-11-19T16:53:02.997Z,96432.19
2022-11-19T16:58:25.644Z,96428.81
2022-11-19T17:03:46.279Z,96430.91
2022-11-19T17:09:07.589Z,96437.31
2022-11-19T17:14:34.663Z,96438.19
2022-11-19T17:19:58.497Z,96443.63
2022-11-19T17:25:19.883Z,96442.56
2022-11-19T17:30:40.816Z,96449.25
2022-11-19T17:36:01.384Z,96445.63
2022-11-19T17:41:42.336Z,96438.75
2022-11-19T17:47:20.753Z,96448.22
2022-11-19T17:52:44.381Z,96463.56
2022-11-19T17:58:06.624Z,96469.34
2022-11-19T18:03:27.033Z,96465.16
2022-11-19T18:08:48.290Z,96464.25
2022-11-19T18:14:10.206Z,96472.38
2022-11-19T18:19:30.879Z,96472.38
2022-11-19T18:24:52.660Z,96472.84
2022-11-19T18:30:14.366Z,96469.78
2022-11-19T18:35:36.543Z,96467.69
2022-11-19T18:40:57.019Z,96466.78
2022-11-19T18:46:18.936Z,96459.34
2022-11-19T18:51:39.983Z,96444.53
2022-11-19T18:57:01.053Z,96448.81
2022-11-19T19:02:21.854Z,96466.69
2022-11-19T19:07:42.745Z,96464.47
2022-11-19T19:13:03.468Z,96453.97
2022-11-19T19:18:24.198Z,96455.34
2022-11-19T19:23:46.693Z,96456.94
2022-11-19T19:29:07.280Z,96448.75
2022-11-19T19:34:28.568Z,96447.56
2022-11-19T19:39:49.041Z,96451.13
2022-11-19T19:45:10.121Z,96455.41
2022-11-19T19:50:33.022Z,96453.25
2022-11-19T19:56:01.185Z,96469.13
2022-11-19T20:01:24.614Z,96463.03
2022-11-19T20:06:47.139Z,96467.50
2022-11-19T20:12:07.749Z,96476.34
2022-11-19T20:17:29.956Z,96468.81
2022-11-19T20:22:50.602Z,96473.09
2022-11-19T20:28:11.331Z,96465.31
2022-11-19T20:33:35.187Z,96473.06
2022-11-19T20:38:59.081Z,96468.38
2022-11-19T20:44:21.156Z,96479.00
2022-11-19T20:49:42.088Z,96473.44
2022-11-19T20:55:06.864Z,96480.25
2022-11-19T21:00:27.922Z,96487.38
2022-11-19T21:05:48.829Z,96479.38
2022-11-19T21:11:10.618Z,96479.16
2022-11-19T21:16:32.838Z,96477.84
2022-11-19T21:21:53.732Z,96473.72
2022-11-19T21:27:14.325Z,96483.25
2022-11-19T21:32:35.218Z,96476.97
2022-11-19T21:37:56.310Z,96472.94
2022-11-19T21:43:17.279Z,96471.13
2022-11-19T21:48:39.000Z,96458.31
2022-11-19T21:54:00.589Z,96451.09
2022-11-19T21:59:21.314Z,96456.22
2022-11-19T22:04:42.187Z,96458.03
2022-11-19T22:10:02.900Z,96457.00
2022-11-19T22:15:23.787Z,96454.00
2022-11-19T22:20:44.949Z,96442.59
2022-11-19T22:26:06.205Z,96443.78
2022-11-19T22:31:26.807Z,96441.38
2022-11-19T22:36:47.682Z,96439.91
2022-11-19T22:42:08.510Z,96437.91
2022-11-19T22:47:29.390Z,96435.03
2022-11-19T22:52:50.176Z,96435.09
2022-11-19T22:58:11.107Z,96419.81
2022-11-19T23:03:31.709Z,96417.75
2022-11-19T23:08:52.828Z,96402.09
2022-11-19T23:14:14.559Z,96407.34
2022-11-19T23:19:36.506Z,96402.47
2022-11-19T23:24:57.442Z,96403.97
2022-11-19T23:30:18.258Z,96409.38
2022-11-19T23:35:38.736Z,96418.81
2022-11-19T23:41:00.187Z,96415.72
2022-11-19T23:46:22.406Z,96414.41
2022-11-19T23:51:43.857Z,96416.16
2022-11-19T23:57:04.799Z,96410.81
